createdAt,value
2019-05-09T00:04:39.902Z,99309.09
2019-05-09T00:09:45.387Z,99312.03
2019-05-09T00:14:50.802Z,99314.90
2019-05-09T00:19:58.442Z,99314.27
2019-05-09T00:25:03.993Z,99316.47
2019-05-09T00:30:09.802Z,99314.17
2019-05-09T00:35:46.299Z,99311.75
2019-05-09T00:40:58.391Z,99315.08
2019-05-09T00:46:18.125Z,99317.35
2019-05-09T00:51:23.589Z,99324.41
2019-05-09T00:56:29.011Z,99316.16
2019-05-09T01:01:34.556Z,99314.86
2019-05-09T01:06:40.054Z,99322.30
2019-05-09T01:11:45.469Z,99316.80
2019-05-09T01:16:50.888Z,99310.09
2019-05-09T01:21:56.518Z,99311.13
2019-05-09T01:27:03.638Z,99313.38
2019-05-09T01:32:16.326Z,99303.11
2019-05-09T01:37:23.717Z,99308.94
2019-05-09T01:42:28.871Z,99311.48
2019-05-09T01:47:34.440Z,99311.09
2019-05-09T01:52:40.122Z,99316.22
2019-05-09T01:57:47.811Z,99317.72
2019-05-09T02:02:54.074Z,99299.62
2019-05-09T02:07:59.656Z,99291.23
2019-05-09T02:13:05.266Z,99288.84
2019-05-09T02:18:16.833Z,99280.12
2019-05-09T02:23:23.334Z,99274.58
2019-05-09T02:28:29.109Z,99272.01
2019-05-09T02:33:34.903Z,99268.59
2019-05-09T02:38:40.591Z,99281.89
2019-05-09T02:43:49.273Z,99283.48
2019-05-09T02:48:53.124Z,99282.27
2019-05-09T02:53:58.886Z,99282.75
2019-05-09T02:59:11.619Z,99279.80
2019-05-09T03:04:18.900Z,99275.09
2019-05-09T03:09:24.290Z,99274.28
2019-05-09T03:14:29.740Z,99266.02
2019-05-09T03:19:38.413Z,99251.67
2019-05-09T03:24:42.427Z,99251.09
2019-05-09T03:29:51.968Z,99254.14
2019-05-09T03:34:58.081Z,99251.19
2019-05-09T03:40:03.568Z,99243.66
2019-05-09T03:45:10.641Z,99239.66
2019-05-09T03:50:17.984Z,99244.01
2019-05-09T03:55:30.633Z,99239.91
2019-05-09T04:00:37.569Z,99238.44
2019-05-09T04:05:55.328Z,99235.28
2019-05-09T04:10:51.816Z,99237.13
2019-05-09T04:15:58.252Z,99237.59
2019-05-09T04:21:04.172Z,99235.39
2019-05-09T04:26:19.289Z,99237.05
2019-05-09T04:31:24.760Z,99238.13
2019-05-09T04:36:38.963Z,99240.34
2019-05-09T04:41:44.395Z,99235.08
2019-05-09T04:46:54.127Z,99239.09
2019-05-09T04:51:58.381Z,99234.80
2019-05-09T04:57:03.961Z,99246.56
2019-05-09T05:02:34.484Z,99236.90
2019-05-09T05:07:39.923Z,99239.23
2019-05-09T05:12:45.426Z,99231.23
2019-05-09T05:17:50.883Z,99245.83
2019-05-09T05:23:02.055Z,99243.98
2019-05-09T05:28:08.558Z,99253.19
2019-05-09T05:33:33.161Z,99247.55
2019-05-09T05:38:38.772Z,99228.45
2019-05-09T05:43:44.891Z,99222.38
2019-05-09T05:48:51.943Z,99216.42
2019-05-09T05:53:57.498Z,99225.29
2019-05-09T05:59:03.098Z,99214.50
2019-05-09T06:04:08.557Z,99198.91
2019-05-09T06:09:13.963Z,99200.94
2019-05-09T06:14:19.420Z,99193.42
2019-05-09T06:19:25.233Z,99195.52
2019-05-09T06:24:30.702Z,99190.19
2019-05-09T06:29:38.573Z,99176.19
2019-05-09T06:34:43.916Z,99179.14
2019-05-09T06:39:49.635Z,99190.80
2019-05-09T06:45:07.587Z,99184.94
2019-05-09T06:50:14.928Z,99185.78
2019-05-09T06:55:20.627Z,99163.13
2019-05-09T07:00:45.008Z,99170.56
2019-05-09T07:06:02.391Z,99172.50
2019-05-09T07:11:08.175Z,99174.88
2019-05-09T07:16:13.596Z,99189.39
2019-05-09T07:21:19.157Z,99183.34
2019-05-09T07:26:30.022Z,99185.06
2019-05-09T07:31:47.976Z,99183.83
2019-05-09T07:36:53.250Z,99188.23
2019-05-09T07:41:58.884Z,99190.82
2019-05-09T07:47:07.605Z,99171.99
2019-05-09T07:52:13.235Z,99180.70
2019-05-09T07:57:18.882Z,99179.89
2019-05-09T08:02:24.388Z,99182.92
2019-05-09T08:07:29.881Z,99178.73
2019-05-09T08:12:35.295Z,99176.49
2019-05-09T08:17:40.873Z,99173.91
2019-05-09T08:22:57.327Z,99184.52
2019-05-09T08:27:53.620Z,99170.53
2019-05-09T08:33:00.050Z,99176.25
2019-05-09T08:38:08.285Z,99180.23
2019-05-09T08:43:12.877Z,99183.80
2019-05-09T08:48:18.478Z,99178.30
2019-05-09T08:53:23.905Z,99176.80
2019-05-09T08:58:29.530Z,99175.16
2019-05-09T09:03:35.021Z,99169.98
2019-05-09T09:08:40.461Z,99168.53
2019-05-09T09:13:48.108Z,99160.92
2019-05-09T09:18:53.219Z,99167.60
2019-05-09T09:23:58.720Z,99161.30
2019-05-09T09:29:04.209Z,99163.16
2019-05-09T09:34:09.650Z,99162.22
2019-05-09T09:39:15.098Z,99160.32
2019-05-09T09:44:22.443Z,99163.59
2019-05-09T09:49:29.390Z,99164.14
2019-05-09T09:54:35.118Z,99171.72
2019-05-09T09:59:48.470Z,99158.47
2019-05-09T10:04:53.686Z,99156.84
2019-05-09T10:09:59.104Z,99161.73
2019-05-09T10:15:11.585Z,99164.50
2019-05-09T10:20:21.874Z,99165.15
2019-05-09T10:25:27.663Z,99168.43
2019-05-09T10:30:34.865Z,99168.70
2019-05-09T10:35:40.317Z,99170.27
2019-05-09T10:40:48.298Z,99169.20
2019-05-09T10:46:10.051Z,99165.41
2019-05-09T10:51:15.532Z,99170.86
2019-05-09T10:56:20.966Z,99167.09
2019-05-09T11:01:29.197Z,99166.02
2019-05-09T11:06:33.585Z,99165.54
2019-05-09T11:11:39.257Z,99160.14
2019-05-09T11:16:49.097Z,99167.45
2019-05-09T11:21:51.959Z,99165.61
2019-05-09T11:26:58.878Z,99170.74
2019-05-09T11:32:04.462Z,99179.39
2019-05-09T11:37:09.985Z,99190.05
2019-05-09T11:42:17.709Z,99183.83
2019-05-09T11:47:33.700Z,99176.68
2019-05-09T11:52:31.717Z,99183.80
2019-05-09T11:57:38.517Z,99183.27
2019-05-09T12:02:44.102Z,99188.84
2019-05-09T12:07:49.495Z,99193.50
2019-05-09T12:12:57.468Z,99199.78
2019-05-09T12:18:08.383Z,99207.22
2019-05-09T12:23:09.291Z,99203.52
2019-05-09T12:28:14.760Z,99207.91
2019-05-09T12:33:20.306Z,99211.30
2019-05-09T12:38:27.772Z,99215.13
2019-05-09T12:43:33.436Z,99216.64
2019-05-09T12:48:39.082Z,99224.16
2019-05-09T12:53:44.675Z,99231.22
2019-05-09T12:58:50.166Z,99239.98
2019-05-09T13:03:58.057Z,99239.52
2019-05-09T13:09:02.859Z,99246.80
2019-05-09T13:14:09.957Z,99237.58
2019-05-09T13:19:18.505Z,99246.19
2019-05-09T13:24:24.231Z,99248.16
2019-05-09T13:29:29.743Z,99257.52
2019-05-09T13:34:37.819Z,99259.20
2019-05-09T13:39:42.380Z,99259.38
2019-05-09T13:44:47.818Z,99267.31
2019-05-09T13:49:55.947Z,99275.98
2019-05-09T13:55:00.722Z,99278.31
2019-05-09T14:00:08.706Z,99286.16
2019-05-09T14:05:13.462Z,99302.38
2019-05-09T14:10:18.918Z,99315.61
2019-05-09T14:15:24.343Z,99319.18
2019-05-09T14:20:29.780Z,99324.63
2019-05-09T14:25:37.911Z,99330.09
2019-05-09T14:30:42.396Z,99332.92
2019-05-09T14:35:47.965Z,99331.84
2019-05-09T14:40:53.478Z,99341.75
2019-05-09T14:45:58.939Z,99338.83
2019-05-09T14:51:04.429Z,99343.13
2019-05-09T14:56:09.902Z,99351.31
2019-05-09T15:01:15.310Z,99361.42
2019-05-09T15:06:20.729Z,99366.27
2019-05-09T15:11:28.224Z,99369.66
2019-05-09T15:16:33.971Z,99365.31
2019-05-09T15:21:39.634Z,99368.75
2019-05-09T15:26:45.101Z,99369.30
2019-05-09T15:31:54.123Z,99370.99
2019-05-09T15:36:58.331Z,99377.84
2019-05-09T15:42:04.281Z,99372.00
2019-05-09T15:47:18.201Z,99381.38
2019-05-09T15:52:23.499Z,99382.80
2019-05-09T15:57:29.034Z,99386.30
2019-05-09T16:02:34.481Z,99387.53
2019-05-09T16:07:40.101Z,99386.69
2019-05-09T16:12:45.539Z,99395.39
2019-05-09T16:17:51.119Z,99397.28
2019-05-09T16:22:57.278Z,99398.95
2019-05-09T16:28:02.759Z,99402.88
2019-05-09T16:33:08.319Z,99411.19
2019-05-09T16:38:13.783Z,99416.41
2019-05-09T16:43:19.211Z,99423.88
2019-05-09T16:48:24.640Z,99430.86
2019-05-09T16:53:30.050Z,99438.41
2019-05-09T16:58:37.431Z,99441.23
2019-05-09T17:03:42.762Z,99445.11
2019-05-09T17:08:48.374Z,99448.47
2019-05-09T17:13:53.931Z,99443.69
2019-05-09T17:18:59.357Z,99446.23
2019-05-09T17:24:08.119Z,99444.03
2019-05-09T17:29:13.313Z,99451.94
2019-05-09T17:34:18.729Z,99453.69
2019-05-09T17:39:24.167Z,99454.09
2019-05-09T17:44:29.638Z,99472.57
2019-05-09T17:49:37.345Z,99474.92
2019-05-09T17:54:42.202Z,99491.36
2019-05-09T17:59:48.762Z,99497.28
2019-05-09T18:04:54.681Z,99498.84
2019-05-09T18:10:00.120Z,99511.56
2019-05-09T18:15:07.682Z,99516.80
2019-05-09T18:20:12.951Z,99520.64
2019-05-09T18:25:18.859Z,99582.37
2019-05-09T18:30:24.320Z,99590.67
2019-05-09T18:35:31.041Z,99594.55
2019-05-09T18:40:36.667Z,99616.69
2019-05-09T18:45:42.137Z,99632.23
2019-05-09T18:50:47.671Z,99647.57
2019-05-09T18:55:53.109Z,99659.72
2019-05-09T19:00:58.541Z,99663.80
2019-05-09T19:06:03.974Z,99671.25
2019-05-09T19:11:09.431Z,99673.28
2019-05-09T19:16:39.033Z,99681.00
2019-05-09T19:21:47.862Z,99686.34
2019-05-09T19:26:53.341Z,99694.83
2019-05-09T19:31:58.841Z,99705.04
2019-05-09T19:37:04.304Z,99711.28
2019-05-09T19:42:09.876Z,99721.69
2019-05-09T19:47:15.326Z,99727.66
2019-05-09T19:52:21.128Z,99734.91
2019-05-09T19:57:26.973Z,99745.47
2019-05-09T20:02:32.547Z,99747.00
2019-05-09T20:07:37.945Z,99749.08
2019-05-09T20:12:49.087Z,99754.60
2019-05-09T20:17:54.693Z,99762.75
2019-05-09T20:23:00.262Z,99777.91
2019-05-09T20:28:08.657Z,99788.83
2019-05-09T20:33:14.171Z,99788.30
2019-05-09T20:38:19.766Z,99794.97
2019-05-09T20:43:25.449Z,99807.11
2019-05-09T20:48:31.093Z,99820.20
2019-05-09T20:53:36.726Z,99830.06
2019-05-09T20:58:42.398Z,99832.90
2019-05-09T21:03:59.746Z,99840.44
2019-05-09T21:08:55.376Z,99839.95
2019-05-09T21:14:01.011Z,99845.76
2019-05-09T21:19:06.897Z,99845.59
2019-05-09T21:24:12.516Z,99859.52
2019-05-09T21:29:18.167Z,99873.52
2019-05-09T21:34:23.797Z,99878.93
2019-05-09T21:39:29.316Z,99880.63
2019-05-09T21:44:34.736Z,99887.73
2019-05-09T21:49:40.169Z,99889.28
2019-05-09T21:54:45.579Z,99890.89
2019-05-09T21:59:51.164Z,99900.43
2019-05-09T22:04:56.615Z,99906.88
2019-05-09T22:10:02.120Z,99908.00
2019-05-09T22:15:07.541Z,99910.67
2019-05-09T22:20:13.054Z,99909.48
2019-05-09T22:25:18.838Z,99923.36
2019-05-09T22:30:24.238Z,99931.95
2019-05-09T22:35:29.682Z,99934.13
2019-05-09T22:40:35.129Z,99930.59
2019-05-09T22:45:40.632Z,99932.83
2019-05-09T22:50:46.078Z,99932.45
2019-05-09T22:55:51.825Z,99945.41
2019-05-09T23:00:57.324Z,99950.44
2019-05-09T23:06:03.062Z,99954.61
2019-05-09T23:11:08.536Z,99964.66
2019-05-09T23:16:14.153Z,99962.83
2019-05-09T23:21:19.641Z,99962.06
2019-05-09T23:26:25.463Z,99968.13
2019-05-09T23:31:36.448Z,99974.17
2019-05-09T23:36:41.892Z,99974.70
2019-05-09T23:41:47.358Z,99971.77
2019-05-09T23:46:52.857Z,99974.88
2019-05-09T23:51:58.319Z,99980.61
2019-05-09T23:57:21.156Z,99976.72
